createdAt,value
2018-09-05T00:01:23.377Z,98153.14
2018-09-05T00:03:52.523Z,98150.55
2018-09-05T00:06:21.815Z,98146.84
2018-09-05T00:08:51.094Z,98142.78
2018-09-05T00:11:20.917Z,98140.80
2018-09-05T00:13:49.566Z,98141.57
2018-09-05T00:16:19.291Z,98143.59
2018-09-05T00:18:48.369Z,98135.08
2018-09-05T00:21:17.777Z,98143.28
2018-09-05T00:23:46.885Z,98144.22
2018-09-05T00:26:16.002Z,98145.88
2018-09-05T00:28:45.170Z,98143.63
2018-09-05T00:31:14.315Z,98145.07
2018-09-05T00:33:43.438Z,98141.14
2018-09-05T00:36:12.617Z,98141.84
2018-09-05T00:38:41.806Z,98142.96
2018-09-05T00:41:11.006Z,98140.80
2018-09-05T00:43:40.205Z,98138.52
2018-09-05T00:46:09.326Z,98135.92
2018-09-05T00:48:38.453Z,98136.28
2018-09-05T00:51:08.058Z,98134.57
2018-09-05T00:53:37.210Z,98134.82
2018-09-05T00:56:06.768Z,98134.69
2018-09-05T00:58:35.968Z,98134.64
2018-09-05T01:01:05.113Z,98132.44
2018-09-05T01:03:34.334Z,98133.20
2018-09-05T01:06:03.492Z,98127.83
2018-09-05T01:08:32.618Z,98130.33
2018-09-05T01:11:01.796Z,98131.50
2018-09-05T01:13:31.353Z,98135.42
2018-09-05T01:16:00.530Z,98132.27
2018-09-05T01:18:29.656Z,98139.37
2018-09-05T01:20:58.887Z,98130.39
2018-09-05T01:23:28.039Z,98139.51
2018-09-05T01:25:57.568Z,98132.94
2018-09-05T01:28:26.913Z,98140.73
2018-09-05T01:30:56.513Z,98135.09
2018-09-05T01:33:25.669Z,98132.25
2018-09-05T01:36:00.041Z,98130.69
2018-09-05T01:38:29.166Z,98126.09
2018-09-05T01:40:58.314Z,98135.67
2018-09-05T01:43:27.478Z,98132.46
2018-09-05T01:45:56.635Z,98127.98
2018-09-05T01:48:25.789Z,98135.34
2018-09-05T01:50:54.941Z,98127.25
2018-09-05T01:53:27.053Z,98127.45
2018-09-05T01:55:56.750Z,98128.99
2018-09-05T01:58:25.910Z,98127.21
2018-09-05T02:00:55.033Z,98130.27
2018-09-05T02:03:24.954Z,98135.50
2018-09-05T02:05:54.130Z,98131.17
2018-09-05T02:08:23.266Z,98135.63
2018-09-05T02:10:52.785Z,98134.26
2018-09-05T02:13:22.013Z,98142.01
2018-09-05T02:15:51.222Z,98135.66
2018-09-05T02:18:20.437Z,98135.61
2018-09-05T02:20:49.639Z,98139.59
2018-09-05T02:23:18.870Z,98135.02
2018-09-05T02:25:48.113Z,98135.17
2018-09-05T02:28:17.569Z,98134.67
2018-09-05T02:30:47.493Z,98136.41
2018-09-05T02:33:16.725Z,98136.30
2018-09-05T02:35:45.934Z,98138.59
2018-09-05T02:38:15.154Z,98130.78
2018-09-05T02:40:44.479Z,98133.23
2018-09-05T02:43:18.438Z,98133.56
2018-09-05T02:45:48.538Z,98126.55
2018-09-05T02:48:18.117Z,98128.71
2018-09-05T02:50:47.302Z,98137.98
2018-09-05T02:53:16.666Z,98131.99
2018-09-05T02:55:51.063Z,98127.66
2018-09-05T02:58:20.558Z,98127.48
2018-09-05T03:00:49.745Z,98128.84
2018-09-05T03:03:18.893Z,98135.61
2018-09-05T03:05:48.237Z,98127.44
2018-09-05T03:08:17.446Z,98131.08
2018-09-05T03:10:46.665Z,98128.53
2018-09-05T03:13:16.253Z,98133.14
2018-09-05T03:15:45.414Z,98130.89
2018-09-05T03:18:14.609Z,98130.52
2018-09-05T03:20:44.019Z,98127.88
2018-09-05T03:23:13.135Z,98133.55
2018-09-05T03:25:45.301Z,98134.83
2018-09-05T03:28:14.418Z,98138.98
2018-09-05T03:30:43.787Z,98133.12
2018-09-05T03:33:12.919Z,98139.26
2018-09-05T03:35:42.046Z,98141.84
2018-09-05T03:38:11.182Z,98146.77
2018-09-05T03:40:40.311Z,98141.56
2018-09-05T03:43:18.006Z,98141.84
2018-09-05T03:45:49.007Z,98147.37
2018-09-05T03:48:29.510Z,98137.92
2018-09-05T03:51:07.402Z,98141.44
2018-09-05T03:53:38.575Z,98143.75
2018-09-05T03:56:08.388Z,98147.89
2018-09-05T03:58:38.373Z,98152.23
2018-09-05T04:01:08.265Z,98154.78
2018-09-05T04:03:38.095Z,98152.62
2018-09-05T04:06:07.802Z,98159.52
2018-09-05T04:08:37.212Z,98153.50
2018-09-05T04:11:06.470Z,98152.64
2018-09-05T04:13:35.816Z,98153.42
2018-09-05T04:16:05.294Z,98150.98
2018-09-05T04:18:34.660Z,98153.81
2018-09-05T04:21:03.954Z,98151.56
2018-09-05T04:23:37.386Z,98150.48
2018-09-05T04:26:06.674Z,98151.58
2018-09-05T04:28:36.460Z,98153.81
2018-09-05T04:31:05.826Z,98146.86
2018-09-05T04:33:35.471Z,98145.19
2018-09-05T04:36:04.716Z,98150.98
2018-09-05T04:38:34.090Z,98150.90
2018-09-05T04:41:03.583Z,98147.83
2018-09-05T04:43:33.368Z,98151.47
2018-09-05T04:46:03.170Z,98152.74
2018-09-05T04:48:32.465Z,98154.62
2018-09-05T04:51:01.802Z,98155.09
2018-09-05T04:53:32.309Z,98156.84
2018-09-05T04:56:01.517Z,98159.84
2018-09-05T04:58:30.683Z,98163.16
2018-09-05T05:00:59.806Z,98166.58
2018-09-05T05:03:28.979Z,98170.70
2018-09-05T05:05:58.137Z,98176.03
2018-09-05T05:08:27.320Z,98180.43
2018-09-05T05:10:56.531Z,98177.34
2018-09-05T05:13:25.714Z,98178.27
2018-09-05T05:15:54.920Z,98181.77
2018-09-05T05:18:24.330Z,98187.14
2018-09-05T05:20:53.498Z,98192.34
2018-09-05T05:23:23.093Z,98190.84
2018-09-05T05:25:52.286Z,98204.38
2018-09-05T05:28:21.446Z,98201.64
2018-09-05T05:30:50.630Z,98206.53
2018-09-05T05:33:19.799Z,98206.22
2018-09-05T05:35:49.131Z,98207.03
2018-09-05T05:38:18.564Z,98207.20
2018-09-05T05:40:48.490Z,98210.13
2018-09-05T05:43:17.798Z,98212.91
2018-09-05T05:45:47.114Z,98208.55
2018-09-05T05:48:16.523Z,98211.91
2018-09-05T05:50:45.811Z,98212.33
2018-09-05T05:53:15.238Z,98209.48
2018-09-05T05:55:44.628Z,98212.47
2018-09-05T05:58:13.974Z,98204.78
2018-09-05T06:00:43.724Z,98211.63
2018-09-05T06:03:13.626Z,98212.73
2018-09-05T06:05:41.931Z,98209.75
2018-09-05T06:08:11.972Z,98215.41
2018-09-05T06:10:41.144Z,98216.17
2018-09-05T06:13:10.274Z,98211.66
2018-09-05T06:15:39.531Z,98214.23
2018-09-05T06:18:09.262Z,98218.82
2018-09-05T06:20:38.389Z,98223.06
2018-09-05T06:23:07.548Z,98221.61
2018-09-05T06:25:36.770Z,98226.83
2018-09-05T06:28:05.989Z,98220.21
2018-09-05T06:30:35.227Z,98219.09
2018-09-05T06:33:05.494Z,98217.17
2018-09-05T06:35:33.560Z,98226.69
2018-09-05T06:38:02.723Z,98228.05
2018-09-05T06:40:32.000Z,98225.03
2018-09-05T06:43:01.178Z,98221.09
2018-09-05T06:45:30.446Z,98216.47
2018-09-05T06:47:59.602Z,98219.38
2018-09-05T06:50:28.787Z,98213.38
2018-09-05T06:52:57.947Z,98210.34
2018-09-05T06:55:27.085Z,98216.03
2018-09-05T06:57:56.234Z,98215.83
2018-09-05T07:00:25.746Z,98217.14
2018-09-05T07:02:55.066Z,98217.15
2018-09-05T07:05:24.206Z,98215.46
2018-09-05T07:07:53.342Z,98213.01
2018-09-05T07:10:23.260Z,98217.17
2018-09-05T07:12:52.374Z,98216.19
2018-09-05T07:15:21.543Z,98221.62
2018-09-05T07:17:50.679Z,98216.58
2018-09-05T07:20:19.834Z,98214.51
2018-09-05T07:22:48.961Z,98218.98
2018-09-05T07:25:18.078Z,98217.19
2018-09-05T07:27:47.667Z,98212.37
2018-09-05T07:30:17.579Z,98209.44
2018-09-05T07:32:47.140Z,98210.58
2018-09-05T07:35:16.321Z,98215.58
2018-09-05T07:37:45.502Z,98210.55
2018-09-05T07:40:14.673Z,98212.67
2018-09-05T07:42:44.042Z,98215.33
2018-09-05T07:45:14.473Z,98215.81
2018-09-05T07:47:43.859Z,98218.39
2018-09-05T07:50:13.162Z,98217.20
2018-09-05T07:52:42.335Z,98224.55
2018-09-05T07:55:11.495Z,98214.84
2018-09-05T07:57:40.718Z,98218.89
2018-09-05T08:00:09.900Z,98220.38
2018-09-05T08:02:39.091Z,98214.61
2018-09-05T08:05:08.234Z,98220.92
2018-09-05T08:07:37.438Z,98214.39
2018-09-05T08:10:06.575Z,98217.85
2018-09-05T08:12:36.238Z,98210.28
2018-09-05T08:15:05.350Z,98214.36
2018-09-05T08:17:34.504Z,98211.55
2018-09-05T08:20:03.642Z,98212.55
2018-09-05T08:22:32.795Z,98205.77
2018-09-05T08:25:02.562Z,98211.03
2018-09-05T08:27:31.804Z,98203.30
2018-09-05T08:30:00.935Z,98198.92
2018-09-05T08:32:30.044Z,98200.79
2018-09-05T08:34:59.321Z,98196.45
2018-09-05T08:37:28.899Z,98194.14
2018-09-05T08:39:57.847Z,98194.33
2018-09-05T08:42:31.137Z,98199.65
2018-09-05T08:45:00.944Z,98199.92
2018-09-05T08:47:30.057Z,98198.74
2018-09-05T08:50:00.052Z,98199.58
2018-09-05T08:52:29.486Z,98194.52
2018-09-05T08:54:58.853Z,98187.89
2018-09-05T08:57:27.993Z,98193.98
2018-09-05T08:59:57.138Z,98193.00
2018-09-05T09:02:27.290Z,98184.74
2018-09-05T09:04:56.501Z,98184.91
2018-09-05T09:07:25.591Z,98190.29
2018-09-05T09:09:55.002Z,98182.41
2018-09-05T09:12:24.114Z,98177.63
2018-09-05T09:14:53.355Z,98177.05
2018-09-05T09:17:22.531Z,98167.97
2018-09-05T09:19:51.646Z,98168.95
2018-09-05T09:22:20.762Z,98166.31
2018-09-05T09:24:50.067Z,98169.13
2018-09-05T09:27:19.194Z,98164.43
2018-09-05T09:29:48.338Z,98164.09
2018-09-05T09:32:17.512Z,98161.41
2018-09-05T09:34:46.710Z,98162.72
2018-09-05T09:37:15.887Z,98159.83
2018-09-05T09:39:45.598Z,98157.09
2018-09-05T09:42:14.806Z,98151.75
2018-09-05T09:44:44.594Z,98144.88
2018-09-05T09:47:13.982Z,98141.13
2018-09-05T09:49:43.326Z,98139.50
2018-09-05T09:52:17.882Z,98134.28
2018-09-05T09:54:47.310Z,98131.04
2018-09-05T09:57:16.465Z,98135.14
2018-09-05T09:59:45.677Z,98131.45
2018-09-05T10:02:20.410Z,98130.42
2018-09-05T10:04:54.875Z,98125.97
2018-09-05T10:07:29.131Z,98127.23
2018-09-05T10:10:03.740Z,98118.00
2018-09-05T10:12:37.753Z,98109.42
2018-09-05T10:15:17.478Z,98108.97
2018-09-05T10:17:50.794Z,98106.59
2018-09-05T10:20:19.969Z,98099.61
2018-09-05T10:22:49.550Z,98098.09
2018-09-05T10:25:18.766Z,98085.09
2018-09-05T10:27:48.004Z,98088.92
2018-09-05T10:30:17.140Z,98082.91
2018-09-05T10:32:47.019Z,98084.33
2018-09-05T10:35:16.282Z,98082.84
2018-09-05T10:37:45.450Z,98073.89
2018-09-05T10:40:14.598Z,98075.59
2018-09-05T10:42:43.795Z,98078.13
2018-09-05T10:45:12.981Z,98077.55
2018-09-05T10:47:46.999Z,98073.34
2018-09-05T10:50:16.295Z,98064.54
2018-09-05T10:52:46.346Z,98057.05
2018-09-05T10:55:16.138Z,98060.25
2018-09-05T10:57:45.342Z,98058.69
2018-09-05T11:00:14.518Z,98052.96
2018-09-05T11:02:43.786Z,98054.30
2018-09-05T11:05:12.974Z,98058.88
2018-09-05T11:07:42.101Z,98042.58
2018-09-05T11:10:11.534Z,98045.56
2018-09-05T11:12:40.714Z,98044.02
2018-09-05T11:15:09.870Z,98046.69
2018-09-05T11:17:38.999Z,98040.90
2018-09-05T11:20:10.858Z,98035.22
2018-09-05T11:22:40.556Z,98034.31
2018-09-05T11:25:09.714Z,98039.02
2018-09-05T11:27:38.869Z,98035.19
2018-09-05T11:30:08.043Z,98035.77
2018-09-05T11:32:37.584Z,98032.58
2018-09-05T11:35:06.742Z,98035.37
2018-09-05T11:37:35.923Z,98034.45
2018-09-05T11:40:05.241Z,98029.00
2018-09-05T11:42:34.421Z,98033.11
2018-09-05T11:45:03.637Z,98032.41
2018-09-05T11:47:32.782Z,98023.30
2018-09-05T11:50:01.967Z,98019.98
2018-09-05T11:52:31.200Z,98025.34
2018-09-05T11:55:00.403Z,98016.83
2018-09-05T11:57:29.192Z,98018.49
2018-09-05T11:59:58.361Z,98016.80
2018-09-05T12:02:27.496Z,98014.61
2018-09-05T12:04:56.649Z,98009.49
2018-09-05T12:07:25.767Z,98004.61
2018-09-05T12:09:54.894Z,98004.16
2018-09-05T12:12:24.022Z,98008.69
2018-09-05T12:14:54.364Z,97998.75
2018-09-05T12:17:23.654Z,98002.71
2018-09-05T12:19:52.780Z,98003.22
2018-09-05T12:22:21.946Z,97999.63
2018-09-05T12:24:51.074Z,98001.56
2018-09-05T12:27:20.178Z,98001.76
2018-09-05T12:29:49.334Z,97991.42
2018-09-05T12:32:19.170Z,97989.61
2018-09-05T12:34:48.298Z,97989.47
2018-09-05T12:37:17.448Z,97990.70
2018-09-05T12:39:46.546Z,97978.56
2018-09-05T12:42:15.748Z,97976.81
2018-09-05T12:44:45.087Z,97979.65
2018-09-05T12:47:14.221Z,97967.59
2018-09-05T12:49:43.608Z,97965.17
2018-09-05T12:52:12.770Z,97972.83
2018-09-05T12:54:41.914Z,97966.05
2018-09-05T12:57:11.758Z,97964.56
2018-09-05T12:59:41.109Z,97957.05
2018-09-05T13:02:10.654Z,97966.22
2018-09-05T13:04:39.958Z,97957.49
2018-09-05T13:07:09.507Z,97963.06
2018-09-05T13:09:38.861Z,97961.60
2018-09-05T13:12:08.864Z,97949.27
2018-09-05T13:14:38.186Z,97955.88
2018-09-05T13:17:07.554Z,97949.73
2018-09-05T13:19:36.906Z,97952.03
2018-09-05T13:22:06.545Z,97936.45
2018-09-05T13:24:34.670Z,97948.25
2018-09-05T13:27:04.034Z,97941.94
2018-09-05T13:29:33.271Z,97941.02
2018-09-05T13:32:03.697Z,97936.39
2018-09-05T13:34:32.828Z,97937.25
2018-09-05T13:37:01.986Z,97934.27
2018-09-05T13:39:31.128Z,97935.44
2018-09-05T13:42:00.249Z,97935.18
2018-09-05T13:44:29.450Z,97923.30
2018-09-05T13:46:58.583Z,97928.05
2018-09-05T13:49:27.719Z,97921.62
2018-09-05T13:52:02.153Z,97925.37
2018-09-05T13:54:32.074Z,97922.75
2018-09-05T13:57:01.324Z,97920.01
2018-09-05T13:59:30.998Z,97916.64
2018-09-05T14:02:00.572Z,97914.13
2018-09-05T14:04:29.692Z,97910.62
2018-09-05T14:06:58.812Z,97915.20
2018-09-05T14:09:27.927Z,97909.35
2018-09-05T14:11:57.034Z,97902.38
2018-09-05T14:14:32.946Z,97907.55
2018-09-05T14:17:02.485Z,97910.66
2018-09-05T14:19:31.590Z,97898.09
2018-09-05T14:22:00.726Z,97904.09
2018-09-05T14:24:29.918Z,97902.83
2018-09-05T14:26:59.164Z,97895.41
2018-09-05T14:29:28.377Z,97897.69
2018-09-05T14:31:57.570Z,97904.85
2018-09-05T14:34:26.243Z,97895.44
2018-09-05T14:36:55.774Z,97898.37
2018-09-05T14:39:24.911Z,97890.85
2018-09-05T14:41:54.039Z,97897.15
2018-09-05T14:44:23.179Z,97899.70
2018-09-05T14:46:52.285Z,97901.59
2018-09-05T14:49:21.422Z,97904.38
2018-09-05T14:51:51.435Z,97897.08
2018-09-05T14:54:20.641Z,97902.39
2018-09-05T14:56:50.231Z,97896.09
2018-09-05T14:59:19.347Z,97892.09
2018-09-05T15:01:49.961Z,97890.97
2018-09-05T15:04:19.173Z,97892.88
2018-09-05T15:06:48.788Z,97893.30
2018-09-05T15:09:17.479Z,97884.26
2018-09-05T15:11:46.609Z,97889.19
2018-09-05T15:14:15.749Z,97887.36
2018-09-05T15:16:44.927Z,97885.62
2018-09-05T15:19:16.651Z,97890.73
2018-09-05T15:21:48.377Z,97886.41
2018-09-05T15:24:21.712Z,97877.02
2018-09-05T15:26:50.914Z,97880.26
2018-09-05T15:29:20.038Z,97880.36
2018-09-05T15:31:49.174Z,97878.33
2018-09-05T15:34:18.334Z,97866.84
2018-09-05T15:36:47.520Z,97865.70
2018-09-05T15:39:16.695Z,97866.51
2018-09-05T15:41:45.870Z,97868.34
2018-09-05T15:44:15.044Z,97870.38
2018-09-05T15:46:44.250Z,97864.47
2018-09-05T15:49:13.350Z,97866.30
2018-09-05T15:51:43.726Z,97861.28
2018-09-05T15:54:12.926Z,97869.72
2018-09-05T15:56:42.034Z,97865.45
2018-09-05T15:59:11.264Z,97866.44
2018-09-05T16:01:42.539Z,97867.09
2018-09-05T16:04:13.851Z,97863.88
2018-09-05T16:06:43.674Z,97860.89
2018-09-05T16:09:12.511Z,97857.30
2018-09-05T16:11:41.850Z,97859.83
2018-09-05T16:14:11.146Z,97858.75
2018-09-05T16:16:40.254Z,97859.27
2018-09-05T16:19:09.403Z,97862.38
2018-09-05T16:21:38.635Z,97857.16
2018-09-05T16:24:08.180Z,97865.30
2018-09-05T16:26:37.379Z,97862.11
2018-09-05T16:29:06.498Z,97865.45
2018-09-05T16:31:36.576Z,97868.89
2018-09-05T16:34:06.266Z,97866.00
2018-09-05T16:36:35.614Z,97861.54
2018-09-05T16:39:07.042Z,97865.34
2018-09-05T16:41:36.327Z,97864.16
2018-09-05T16:44:05.918Z,97862.02
2018-09-05T16:46:35.079Z,97862.45
2018-09-05T16:49:04.560Z,97862.65
2018-09-05T16:51:33.821Z,97861.02
2018-09-05T16:54:04.314Z,97864.11
2018-09-05T16:56:34.594Z,97861.64
2018-09-05T16:59:05.436Z,97861.22
2018-09-05T17:01:34.562Z,97857.20
2018-09-05T17:04:07.324Z,97869.19
2018-09-05T17:06:36.625Z,97868.09
2018-09-05T17:09:11.593Z,97872.24
2018-09-05T17:11:41.002Z,97872.55
2018-09-05T17:14:10.171Z,97871.14
2018-09-05T17:16:39.293Z,97869.20
2018-09-05T17:19:08.459Z,97869.94
2018-09-05T17:21:40.297Z,97869.29
2018-09-05T17:24:11.361Z,97875.11
2018-09-05T17:26:40.583Z,97873.97
2018-09-05T17:29:09.815Z,97871.13
2018-09-05T17:31:38.958Z,97876.05
2018-09-05T17:34:08.165Z,97870.19
2018-09-05T17:36:38.660Z,97867.98
2018-09-05T17:39:11.246Z,97859.47
2018-09-05T17:41:40.974Z,97863.52
2018-09-05T17:44:11.453Z,97867.48
2018-09-05T17:46:40.582Z,97868.67
2018-09-05T17:49:10.098Z,97864.73
2018-09-05T17:51:39.277Z,97867.45
2018-09-05T17:54:09.171Z,97859.81
2018-09-05T17:56:39.127Z,97870.45
2018-09-05T17:59:10.159Z,97872.61
2018-09-05T18:01:42.329Z,97868.82
2018-09-05T18:04:11.446Z,97870.98
2018-09-05T18:06:41.568Z,97872.05
2018-09-05T18:09:13.350Z,97871.59
2018-09-05T18:11:44.386Z,97870.30
2018-09-05T18:14:18.078Z,97872.16
2018-09-05T18:16:47.364Z,97871.67
2018-09-05T18:19:16.498Z,97873.05
2018-09-05T18:21:45.618Z,97877.47
2018-09-05T18:24:14.777Z,97881.89
2018-09-05T18:26:43.912Z,97886.80
2018-09-05T18:29:13.374Z,97884.22
2018-09-05T18:31:42.610Z,97885.53
2018-09-05T18:34:11.746Z,97887.66
2018-09-05T18:36:41.066Z,97883.54
2018-09-05T18:39:10.705Z,97886.12
2018-09-05T18:41:39.976Z,97886.15
2018-09-05T18:44:09.156Z,97889.78
2018-09-05T18:46:38.555Z,97888.74
2018-09-05T18:49:07.792Z,97894.96
2018-09-05T18:51:36.907Z,97890.27
2018-09-05T18:54:06.061Z,97899.58
2018-09-05T18:56:35.306Z,97897.22
2018-09-05T18:59:05.367Z,97905.48
2018-09-05T19:01:35.275Z,97904.48
2018-09-05T19:04:04.447Z,97900.84
2018-09-05T19:06:38.732Z,97904.46
2018-09-05T19:09:10.846Z,97901.08
2018-09-05T19:11:40.257Z,97901.61
2018-09-05T19:14:12.027Z,97896.95
2018-09-05T19:16:43.883Z,97902.38
2018-09-05T19:19:16.789Z,97899.02
2018-09-05T19:21:48.370Z,97904.97
2018-09-05T19:24:19.375Z,97904.19
2018-09-05T19:26:56.155Z,97908.34
2018-09-05T19:29:30.360Z,97907.05
2018-09-05T19:32:00.981Z,97904.69
2018-09-05T19:34:35.231Z,97907.22
2018-09-05T19:37:09.545Z,97903.83
2018-09-05T19:39:42.304Z,97898.67
2018-09-05T19:42:12.946Z,97898.89
2018-09-05T19:44:44.438Z,97898.86
2018-09-05T19:47:16.918Z,97902.73
2018-09-05T19:49:46.919Z,97903.22
2018-09-05T19:52:16.353Z,97903.92
2018-09-05T19:54:45.583Z,97900.48
2018-09-05T19:57:14.737Z,97908.48
2018-09-05T19:59:43.895Z,97901.98
2018-09-05T20:02:15.621Z,97901.70
2018-09-05T20:04:44.883Z,97907.07
2018-09-05T20:07:14.721Z,97903.27
2018-09-05T20:09:45.786Z,97905.12
2018-09-05T20:12:19.393Z,97900.47
2018-09-05T20:14:50.489Z,97905.66
2018-09-05T20:17:21.743Z,97907.95
2018-09-05T20:19:51.647Z,97907.33
2018-09-05T20:22:20.773Z,97905.50
2018-09-05T20:24:49.961Z,97906.67
2018-09-05T20:27:19.226Z,97906.46
2018-09-05T20:30:03.145Z,97901.44
2018-09-05T20:32:32.485Z,97899.80
2018-09-05T20:35:02.033Z,97893.91
2018-09-05T20:37:31.182Z,97897.23
2018-09-05T20:40:00.345Z,97896.80
2018-09-05T20:42:29.503Z,97902.97
2018-09-05T20:44:58.854Z,97901.67
2018-09-05T20:47:27.974Z,97898.12
2018-09-05T20:49:57.082Z,97900.92
2018-09-05T20:52:26.251Z,97893.91
2018-09-05T20:54:55.402Z,97898.48
2018-09-05T20:57:24.526Z,97897.44
2018-09-05T20:59:53.695Z,97901.41
2018-09-05T21:02:22.861Z,97889.91
2018-09-05T21:04:51.998Z,97892.80
2018-09-05T21:07:21.627Z,97893.42
2018-09-05T21:09:50.807Z,97895.09
2018-09-05T21:12:20.011Z,97890.95
2018-09-05T21:14:49.340Z,97889.63
2018-09-05T21:17:30.589Z,97885.75
2018-09-05T21:20:05.537Z,97890.70
2018-09-05T21:22:34.214Z,97887.06
2018-09-05T21:25:03.350Z,97884.74
2018-09-05T21:27:32.854Z,97880.69
2018-09-05T21:30:01.982Z,97887.49
2018-09-05T21:32:31.140Z,97888.22
2018-09-05T21:35:00.626Z,97888.50
2018-09-05T21:37:29.763Z,97885.30
2018-09-05T21:39:59.310Z,97884.02
2018-09-05T21:42:28.431Z,97885.66
2018-09-05T21:44:57.590Z,97879.49
2018-09-05T21:47:26.719Z,97881.98
2018-09-05T21:49:55.853Z,97882.55
2018-09-05T21:52:24.961Z,97879.75
2018-09-05T21:54:54.130Z,97885.30
2018-09-05T21:57:23.971Z,97885.54
2018-09-05T21:59:53.142Z,97891.63
2018-09-05T22:02:22.342Z,97893.61
2018-09-05T22:04:51.476Z,97893.61
2018-09-05T22:07:20.677Z,97895.84
2018-09-05T22:09:49.843Z,97891.28
2018-09-05T22:12:19.070Z,97896.64
2018-09-05T22:14:48.214Z,97890.67
2018-09-05T22:17:17.461Z,97898.52
2018-09-05T22:19:51.218Z,97900.44
2018-09-05T22:22:20.349Z,97904.42
2018-09-05T22:24:49.601Z,97901.59
2018-09-05T22:27:18.885Z,97900.11
2018-09-05T22:29:48.106Z,97899.59
2018-09-05T22:32:17.891Z,97897.98
2018-09-05T22:34:46.687Z,97899.23
2018-09-05T22:37:15.806Z,97902.95
2018-09-05T22:39:45.008Z,97902.27
2018-09-05T22:42:14.218Z,97894.77
2018-09-05T22:45:00.239Z,97899.00
2018-09-05T22:47:50.730Z,97897.88
2018-09-05T22:50:57.615Z,97898.16
2018-09-05T22:54:19.492Z,97899.01
2018-09-05T23:01:11.844Z,97898.99
2018-09-05T23:04:33.692Z,97899.05
2018-09-05T23:07:21.404Z,97891.88
2018-09-05T23:10:07.669Z,97893.94
2018-09-05T23:12:53.879Z,97893.16
2018-09-05T23:15:40.011Z,97891.36
2018-09-05T23:20:27.595Z,97890.69
2018-09-05T23:23:13.638Z,97885.61
2018-09-05T23:25:42.907Z,97883.22
2018-09-05T23:28:12.250Z,97882.77
2018-09-05T23:30:41.551Z,97885.17
2018-09-05T23:33:10.792Z,97886.52
2018-09-05T23:35:40.334Z,97882.39
2018-09-05T23:38:09.631Z,97879.08
2018-09-05T23:40:38.836Z,97883.30
2018-09-05T23:43:07.992Z,97881.80
2018-09-05T23:45:37.555Z,97882.05
2018-09-05T23:48:06.700Z,97878.98
2018-09-05T23:50:35.831Z,97872.04
2018-09-05T23:53:04.947Z,97869.78
2018-09-05T23:55:34.134Z,97867.31
2018-09-05T23:58:03.987Z,97864.23
